This is the latest recevied weather packets stored in our database for station/object F4ELU-13. If no packets are shown the sender has not sent any weather packets the latest 10 day(s).
| Time | Temp. | Humidity | Pressure | Rain* | Wind** | Luminosity | Snow |
|---|---|---|---|---|---|---|---|
| 1777763343 | 15.56° C | 48% | 1015.9 hPa | 0 mm | - | - | - |
| 1777762803 | 15.56° C | 49% | 1015.9 hPa | 0 mm | - | - | - |
| 1777762443 | 15° C | 51% | 1015.6 hPa | 0 mm | - | - | - |
| 1777761904 | 15.56° C | 51% | 1015.7 hPa | 0 mm | - | - | - |
| 1777761363 | 15.56° C | 52% | 1015.8 hPa | 0 mm | - | - | - |
| 1777760823 | 15.56° C | 53% | 1015.7 hPa | 0 mm | - | - | - |
| 1777760283 | 15.56° C | 52% | 1015.8 hPa | 0 mm | - | - | - |
| 1777759743 | 15.56° C | 53% | 1015.8 hPa | 0 mm | - | - | - |
| 1777759203 | 15.56° C | 51% | 1015.9 hPa | 0 mm | - | - | - |
| 1777758843 | 15.56° C | 52% | 1015.9 hPa | 0 mm | - | - | - |
| 1777758303 | 15° C | 53% | 1015.9 hPa | 0 mm | - | - | - |
| 1777757763 | 14.44° C | 54% | 1016 hPa | 0 mm | - | - | - |
| 1777757223 | 13.89° C | 55% | 1016 hPa | 0 mm | - | - | - |
| 1777756683 | 13.33° C | 57% | 1015.9 hPa | 0 mm | - | - | - |
| 1777756143 | 13.33° C | 55% | 1016.1 hPa | 0 mm | - | - | - |
| 1777755603 | 13.89° C | 54% | 1016.3 hPa | 0 mm | - | - | - |
| 1777755243 | 13.89° C | 54% | 1016.2 hPa | 0 mm | - | - | - |
| 1777754703 | 13.89° C | 55% | 1016.3 hPa | 0 mm | - | - | - |
| 1777754163 | 13.89° C | 55% | 1016.3 hPa | 0 mm | - | - | - |
| 1777753623 | 15° C | 52% | 1016.3 hPa | 0 mm | - | - | - |
| 1777753083 | 15.56° C | 50% | 1016.3 hPa | 0 mm | - | - | - |
| 1777752543 | 16.67° C | 45% | 1016.3 hPa | 0 mm | - | - | - |
| 1777752003 | 16.67° C | 44% | 1016.2 hPa | 0 mm | - | - | - |
| 1777751643 | 16.67° C | 44% | 1016.2 hPa | 0 mm | - | - | - |
| 1777751103 | 16.67° C | 44% | 1016.1 hPa | 0 mm | - | - | - |
* Rain latest hour (hover to see other rain measurements)
** Current wind speed in m/s (hover to see current wind gust speed)